KIRK/IRK METAR and TAF weather

Enter ICAO airport designator
Station Type Date Time Source
KIRK METAR 2021/07/29 18:55 UTC NOAA

KIRK 291855Z AUTO 25008G15KT 10SM FEW110 34/26 A3000 RMK AO2 SLP150 T03440261


Station Type Date Time Source
KIRK Decoded METAR 2021/07/29 18:55 UTC NOAA

KIRKSVILLE REGIONAL AIRPORT , MO, United States (KIRK) 40-06N 092-33W 293M
Jul 29, 2021 - 02:55 PM EDT / 2021.07.29 1855 UTC
Wind: from the WSW (250 degrees) at 9 MPH (8 KT) gusting to 17 MPH (15 KT):0
Visibility: 10 mile(s):0
Sky conditions: mostly clear
Temperature: 93.9 F (34.4 C)
Heat index: 111.6 F (44.2 C):1
Dew Point: 79.0 F (26.1 C)
Relative Humidity: 62%
Pressure (altimeter): 30 in. Hg (1015 hPa)
ob: KIRK 291855Z AUTO 25008G15KT 10SM FEW110 34/26 A3000 RMK AO2 SLP150 T03440261
cycle: 19

Station Type Date Time Source
KIRK TAF UTC NOAA

Error!

Example: see airport list